createdAt,value
2018-10-18T00:03:38.228Z,35.50
2018-10-18T00:08:41.636Z,33.00
2018-10-18T00:13:45.113Z,32.20
2018-10-18T00:18:48.533Z,35.50
2018-10-18T00:23:51.983Z,31.60
2018-10-18T00:28:55.392Z,31.00
2018-10-18T00:33:58.808Z,33.20
2018-10-18T00:39:02.241Z,33.80
2018-10-18T00:44:06.327Z,37.25
2018-10-18T00:49:09.736Z,32.75
2018-10-18T00:54:13.224Z,34.25
2018-10-18T00:59:16.581Z,34.25
2018-10-18T01:04:20.007Z,30.80
2018-10-18T01:09:23.425Z,35.75
2018-10-18T01:14:27.464Z,32.00
2018-10-18T01:19:32.361Z,31.40
2018-10-18T01:24:36.596Z,32.25
2018-10-18T01:29:40.014Z,33.60
2018-10-18T01:34:43.436Z,30.25
2018-10-18T01:39:46.847Z,29.40
2018-10-18T01:44:50.283Z,32.25
2018-10-18T01:49:53.721Z,32.75
2018-10-18T01:54:57.300Z,31.50
2018-10-18T02:00:00.778Z,34.50
2018-10-18T02:05:04.164Z,31.75
2018-10-18T02:10:07.825Z,31.20
2018-10-18T02:15:11.744Z,30.60
2018-10-18T02:20:15.161Z,34.00
2018-10-18T02:25:18.641Z,33.00
2018-10-18T02:30:22.195Z,32.50
2018-10-18T02:35:25.508Z,32.50
2018-10-18T02:40:29.264Z,33.75
2018-10-18T02:45:32.668Z,32.60
2018-10-18T02:50:36.068Z,31.25
2018-10-18T02:55:39.484Z,33.75
2018-10-18T03:00:42.911Z,32.80
2018-10-18T03:05:46.321Z,29.50
2018-10-18T03:10:49.738Z,32.50
2018-10-18T03:15:53.153Z,33.00
2018-10-18T03:20:56.571Z,37.25
2018-10-18T03:25:59.968Z,32.25
2018-10-18T03:31:03.375Z,31.25
2018-10-18T03:36:06.834Z,31.80
2018-10-18T03:41:10.204Z,33.25
2018-10-18T03:46:13.633Z,31.40
2018-10-18T03:51:17.049Z,30.75
2018-10-18T03:56:20.448Z,32.00
2018-10-18T04:01:23.861Z,31.40
2018-10-18T04:06:27.274Z,33.25
2018-10-18T04:11:30.684Z,33.00
2018-10-18T04:16:34.097Z,34.75
2018-10-18T04:21:37.506Z,33.25
2018-10-18T04:26:40.917Z,34.00
2018-10-18T04:31:44.327Z,32.75
2018-10-18T04:36:47.764Z,33.40
2018-10-18T04:41:51.166Z,36.75
2018-10-18T04:46:54.568Z,32.50
2018-10-18T04:51:57.982Z,31.50
2018-10-18T04:57:01.486Z,33.25
2018-10-18T05:02:05.053Z,35.00
2018-10-18T05:07:08.507Z,34.25
2018-10-18T05:12:11.910Z,34.80
2018-10-18T05:17:15.330Z,32.00
2018-10-18T05:22:18.753Z,31.60
2018-10-18T05:27:22.169Z,35.00
2018-10-18T05:32:25.816Z,31.25
2018-10-18T05:37:29.258Z,36.00
2018-10-18T05:42:32.656Z,42.75
2018-10-18T05:47:36.076Z,39.75
2018-10-18T05:52:39.593Z,41.00
2018-10-18T05:57:43.069Z,45.40
2018-10-18T06:02:46.775Z,44.75
2018-10-18T06:07:50.180Z,46.25
2018-10-18T06:12:53.875Z,45.50
2018-10-18T06:17:57.254Z,47.50
2018-10-18T06:23:00.718Z,52.00
2018-10-18T06:28:04.097Z,50.40
2018-10-18T06:33:07.544Z,54.00
2018-10-18T06:38:10.944Z,53.00
2018-10-18T06:43:14.427Z,55.75
2018-10-18T06:48:17.796Z,53.60
2018-10-18T06:53:21.211Z,54.25
2018-10-18T06:58:24.625Z,57.50
2018-10-18T07:03:28.041Z,57.60
2018-10-18T07:08:31.452Z,56.25
2018-10-18T07:13:34.893Z,57.00
2018-10-18T07:18:38.318Z,56.75
2018-10-18T07:23:41.724Z,58.50
2018-10-18T07:28:45.147Z,58.40
2018-10-18T07:33:48.564Z,58.50
2018-10-18T07:38:51.973Z,52.60
2018-10-18T07:43:55.377Z,52.00
2018-10-18T07:48:58.789Z,55.25
2018-10-18T07:54:02.304Z,54.50
2018-10-18T07:59:05.849Z,55.50
2018-10-18T08:04:09.259Z,72.00
2018-10-18T08:09:13.860Z,80.00
2018-10-18T08:14:17.273Z,78.00
2018-10-18T08:19:20.744Z,81.00
2018-10-18T08:24:24.156Z,69.00
2018-10-18T08:29:27.569Z,65.50
2018-10-18T08:34:31.018Z,62.20
2018-10-18T08:39:34.424Z,60.75
2018-10-18T08:44:37.915Z,57.50
2018-10-18T08:49:41.310Z,58.50
2018-10-18T08:54:44.765Z,52.25
2018-10-18T08:59:48.182Z,56.00
2018-10-18T09:04:51.617Z,52.75
2018-10-18T09:09:55.070Z,58.75
2018-10-18T09:14:58.507Z,57.50
2018-10-18T09:20:01.949Z,54.40
2018-10-18T09:25:07.054Z,56.00
2018-10-18T09:30:11.911Z,56.25
2018-10-18T09:35:15.321Z,57.75
2018-10-18T09:40:18.774Z,59.50
2018-10-18T09:45:22.232Z,56.67
2018-10-18T09:50:25.673Z,55.80
2018-10-18T09:55:29.157Z,61.25
2018-10-18T10:00:37.958Z,55.00
2018-10-18T10:05:41.596Z,59.75
2018-10-18T10:10:45.024Z,57.75
2018-10-18T10:15:48.470Z,53.00
2018-10-18T10:20:51.909Z,56.25
2018-10-18T10:25:55.345Z,49.50
2018-10-18T10:30:58.843Z,52.80
2018-10-18T10:36:02.236Z,54.00
2018-10-18T10:41:06.096Z,56.50
2018-10-18T10:46:09.503Z,54.50
2018-10-18T10:51:13.004Z,55.00
2018-10-18T10:56:16.456Z,55.00
2018-10-18T11:01:20.885Z,60.80
2018-10-18T11:06:24.592Z,62.75
2018-10-18T11:11:28.028Z,59.75
2018-10-18T11:16:31.460Z,57.75
2018-10-18T11:21:34.918Z,57.20
2018-10-18T11:26:38.367Z,62.75
2018-10-18T11:31:41.809Z,60.40
2018-10-18T11:36:45.253Z,57.25
2018-10-18T11:41:48.731Z,59.00
2018-10-18T11:46:52.181Z,61.25
2018-10-18T11:51:55.669Z,58.00
2018-10-18T11:56:59.140Z,61.00
2018-10-18T12:02:02.641Z,59.00
2018-10-18T12:07:06.529Z,58.80
2018-10-18T12:12:09.974Z,57.20
2018-10-18T12:17:13.571Z,57.25
2018-10-18T12:22:16.981Z,60.40
2018-10-18T12:27:20.438Z,56.75
2018-10-18T12:32:23.993Z,53.20
2018-10-18T12:37:27.446Z,54.75
2018-10-18T12:42:31.204Z,59.20
2018-10-18T12:47:34.633Z,53.50
2018-10-18T12:52:38.077Z,55.80
2018-10-18T12:57:41.534Z,51.75
2018-10-18T13:02:44.974Z,55.20
2018-10-18T13:07:48.451Z,50.00
2018-10-18T13:12:51.887Z,50.00
2018-10-18T13:17:55.423Z,48.50
2018-10-18T13:22:58.847Z,46.80
2018-10-18T13:28:02.289Z,42.20
2018-10-18T13:33:06.110Z,42.75
2018-10-18T13:38:09.616Z,39.50
2018-10-18T13:43:13.024Z,43.00
2018-10-18T13:48:16.534Z,47.75
2018-10-18T13:53:19.946Z,40.60
2018-10-18T13:58:35.831Z,39.25
2018-10-18T14:03:39.275Z,35.25
2018-10-18T14:08:42.874Z,34.50
2018-10-18T14:13:46.309Z,33.80
2018-10-18T14:18:49.768Z,33.60
2018-10-18T14:23:53.215Z,38.00
2018-10-18T14:28:56.775Z,29.25
2018-10-18T14:34:00.211Z,32.25
2018-10-18T14:39:03.725Z,33.75
2018-10-18T14:44:07.504Z,32.80
2018-10-18T14:49:10.921Z,35.00
2018-10-18T14:54:14.401Z,31.00
2018-10-18T14:59:19.150Z,30.75
2018-10-18T15:04:22.637Z,32.50
2018-10-18T15:09:26.494Z,32.80
2018-10-18T15:14:29.977Z,27.75
2018-10-18T15:19:33.420Z,30.75
2018-10-18T15:24:36.912Z,31.00
2018-10-18T15:29:40.405Z,33.00
2018-10-18T15:34:43.847Z,33.75
2018-10-18T15:39:47.309Z,26.00
2018-10-18T15:44:51.435Z,28.75
2018-10-18T15:49:54.871Z,32.60
2018-10-18T15:54:58.304Z,27.80
2018-10-18T16:00:01.748Z,26.75
2018-10-18T16:05:06.682Z,26.80
2018-10-18T16:10:10.476Z,26.80
2018-10-18T16:15:13.910Z,32.20
2018-10-18T16:20:17.413Z,37.00
2018-10-18T16:25:20.838Z,29.75
2018-10-18T16:30:24.469Z,27.50
2018-10-18T16:35:27.898Z,31.50
2018-10-18T16:40:31.329Z,30.50
2018-10-18T16:45:34.786Z,29.40
2018-10-18T16:50:38.204Z,41.75
2018-10-18T16:55:41.633Z,33.00
2018-10-18T17:00:45.086Z,27.25
2018-10-18T17:05:48.579Z,28.20
2018-10-18T17:10:51.969Z,28.20
2018-10-18T17:15:55.425Z,33.25
2018-10-18T17:20:58.988Z,26.40
2018-10-18T17:26:02.417Z,24.25
2018-10-18T17:31:05.963Z,27.00
2018-10-18T17:36:09.445Z,25.75
2018-10-18T17:41:12.894Z,27.40
2018-10-18T17:46:16.448Z,24.25
2018-10-18T17:51:19.794Z,22.60
2018-10-18T17:56:23.227Z,22.00
2018-10-18T18:01:26.694Z,25.00
2018-10-18T18:06:30.343Z,19.50
2018-10-18T18:11:33.639Z,23.00
2018-10-18T18:16:37.106Z,17.00
2018-10-18T18:21:40.517Z,20.50
2018-10-18T18:26:45.501Z,19.50
2018-10-18T18:31:47.422Z,24.25
2018-10-18T18:36:50.911Z,21.60
2018-10-18T18:41:54.357Z,21.75
2018-10-18T18:46:57.817Z,23.00
2018-10-18T18:52:01.237Z,20.25
2018-10-18T18:57:04.724Z,18.25
2018-10-18T19:02:08.130Z,18.25
2018-10-18T19:07:11.567Z,18.25
2018-10-18T19:12:15.055Z,16.00
2018-10-18T19:17:18.485Z,18.00
2018-10-18T19:22:21.905Z,17.00
2018-10-18T19:27:25.362Z,20.75
2018-10-18T19:32:28.801Z,21.80
2018-10-18T19:37:32.219Z,17.00
2018-10-18T19:42:35.698Z,19.60
2018-10-18T19:47:39.542Z,16.00
2018-10-18T19:52:43.044Z,18.00
2018-10-18T19:57:46.409Z,18.75
2018-10-18T20:02:49.838Z,18.00
2018-10-18T20:07:53.295Z,17.75
2018-10-18T20:12:56.745Z,16.50
2018-10-18T20:18:00.568Z,16.00
2018-10-18T20:23:03.951Z,15.20
2018-10-18T20:28:07.397Z,13.00
2018-10-18T20:33:10.846Z,13.20
2018-10-18T20:38:14.254Z,16.00
2018-10-18T20:43:17.660Z,16.20
2018-10-18T20:48:21.081Z,15.20
2018-10-18T20:53:24.480Z,17.00
2018-10-18T20:58:27.972Z,14.20
2018-10-18T21:03:31.551Z,14.75
2018-10-18T21:08:35.010Z,15.00
2018-10-18T21:13:38.434Z,13.00
2018-10-18T21:18:41.869Z,13.25
2018-10-18T21:23:45.339Z,13.50
2018-10-18T21:28:48.831Z,16.75
2018-10-18T21:33:52.536Z,13.20
2018-10-18T21:38:55.970Z,14.25
2018-10-18T21:43:59.391Z,16.00
2018-10-18T21:49:02.831Z,12.50
2018-10-18T21:54:06.654Z,14.50
2018-10-18T21:59:10.225Z,13.25
2018-10-18T22:04:13.898Z,12.00
2018-10-18T22:09:17.703Z,15.25
2018-10-18T22:14:21.280Z,13.40
2018-10-18T22:19:24.779Z,12.50
2018-10-18T22:24:28.290Z,13.75
2018-10-18T22:29:31.822Z,12.00
2018-10-18T22:34:35.370Z,11.25
2018-10-18T22:39:38.791Z,12.25
2018-10-18T22:44:42.329Z,9.00
2018-10-18T22:49:45.834Z,10.75
2018-10-18T22:54:49.308Z,9.75
2018-10-18T22:59:52.737Z,9.75
2018-10-18T23:04:56.191Z,12.80
2018-10-18T23:09:59.757Z,9.75
2018-10-18T23:15:03.364Z,9.25
2018-10-18T23:20:07.491Z,9.20
2018-10-18T23:25:10.918Z,9.00
2018-10-18T23:30:14.326Z,8.50
2018-10-18T23:35:17.738Z,11.80
2018-10-18T23:40:21.261Z,8.60
2018-10-18T23:45:24.703Z,10.00
2018-10-18T23:50:28.131Z,11.00
2018-10-18T23:55:31.549Z,7.50
